createdAt,value
2018-05-14T00:01:35.407Z,17.90
2018-05-14T00:04:07.376Z,17.80
2018-05-14T00:06:38.614Z,17.80
2018-05-14T00:09:09.773Z,17.70
2018-05-14T00:11:41.260Z,17.70
2018-05-14T00:14:12.451Z,17.60
2018-05-14T00:16:43.677Z,17.50
2018-05-14T00:19:14.883Z,17.50
2018-05-14T00:21:46.232Z,17.40
2018-05-14T00:24:17.396Z,17.40
2018-05-14T00:26:48.608Z,17.40
2018-05-14T00:29:20.522Z,17.30
2018-05-14T00:31:52.013Z,17.30
2018-05-14T00:34:23.917Z,17.30
2018-05-14T00:36:55.108Z,17.30
2018-05-14T00:39:26.294Z,17.20
2018-05-14T00:41:58.545Z,17.20
2018-05-14T00:44:29.713Z,17.10
2018-05-14T00:47:00.906Z,17.10
2018-05-14T00:49:32.930Z,17.00
2018-05-14T00:52:04.062Z,17.00
2018-05-14T00:54:35.300Z,17.00
2018-05-14T00:57:06.487Z,17.00
2018-05-14T00:59:37.666Z,16.90
2018-05-14T01:02:09.110Z,16.80
2018-05-14T01:04:40.282Z,16.80
2018-05-14T01:07:11.485Z,16.90
2018-05-14T01:09:43.439Z,16.70
2018-05-14T01:12:15.828Z,16.70
2018-05-14T01:14:47.109Z,16.70
2018-05-14T01:17:18.296Z,16.70
2018-05-14T01:19:50.256Z,16.60
2018-05-14T01:22:22.202Z,16.60
2018-05-14T01:24:59.434Z,16.60
2018-05-14T01:27:30.988Z,16.60
2018-05-14T01:30:02.172Z,16.60
2018-05-14T01:32:33.779Z,16.60
2018-05-14T01:35:04.967Z,16.50
2018-05-14T01:37:36.187Z,16.50
2018-05-14T01:40:07.360Z,16.40
2018-05-14T01:42:38.571Z,16.40
2018-05-14T01:45:09.795Z,16.40
2018-05-14T01:47:41.249Z,16.40
2018-05-14T01:50:12.410Z,16.40
2018-05-14T01:52:43.672Z,16.30
2018-05-14T01:55:14.871Z,16.30
2018-05-14T01:57:46.089Z,16.30
2018-05-14T02:00:17.258Z,16.30
2018-05-14T02:02:48.467Z,16.30
2018-05-14T02:05:20.413Z,16.20
2018-05-14T02:07:51.615Z,16.20
2018-05-14T02:10:22.799Z,16.20
2018-05-14T02:12:54.097Z,16.20
2018-05-14T02:15:25.263Z,16.20
2018-05-14T02:17:56.714Z,16.20
2018-05-14T02:20:27.890Z,16.10
2018-05-14T02:23:00.229Z,16.10
2018-05-14T02:25:31.410Z,16.10
2018-05-14T02:28:02.917Z,16.10
2018-05-14T02:30:34.099Z,16.10
2018-05-14T02:33:06.106Z,16.10
2018-05-14T02:35:37.280Z,16.00
2018-05-14T02:38:08.798Z,16.10
2018-05-14T02:40:39.999Z,16.10
2018-05-14T02:43:11.203Z,16.00
2018-05-14T02:45:42.459Z,16.00
2018-05-14T02:48:13.650Z,16.00
2018-05-14T02:50:45.649Z,15.90
2018-05-14T02:53:16.884Z,15.90
2018-05-14T02:55:48.176Z,15.80
2018-05-14T02:58:19.396Z,15.80
2018-05-14T03:00:50.591Z,15.80
2018-05-14T03:03:22.554Z,15.70
2018-05-14T03:05:53.762Z,15.70
2018-05-14T03:08:24.951Z,15.70
2018-05-14T03:10:56.134Z,15.70
2018-05-14T03:13:27.342Z,15.70
2018-05-14T03:16:01.015Z,15.70
2018-05-14T03:18:32.214Z,15.70
2018-05-14T03:21:03.435Z,15.70
2018-05-14T03:23:34.703Z,15.60
2018-05-14T03:26:05.903Z,15.60
2018-05-14T03:28:37.895Z,15.60
2018-05-14T03:31:09.070Z,15.60
2018-05-14T03:33:40.307Z,15.50
2018-05-14T03:36:11.493Z,15.50
2018-05-14T03:38:43.513Z,15.50
2018-05-14T03:41:14.735Z,15.50
2018-05-14T03:43:46.057Z,15.50
2018-05-14T03:46:17.325Z,15.50
2018-05-14T03:48:48.512Z,15.40
2018-05-14T03:51:19.735Z,15.40
2018-05-14T03:53:50.991Z,15.40
2018-05-14T03:56:22.261Z,15.30
2018-05-14T03:59:06.565Z,15.40
2018-05-14T04:01:50.217Z,15.40
2018-05-14T04:04:33.697Z,15.40
2018-05-14T04:07:05.638Z,15.40
2018-05-14T04:09:37.604Z,15.40
2018-05-14T04:12:09.553Z,15.30
2018-05-14T04:14:40.814Z,15.30
2018-05-14T04:17:12.730Z,15.30
2018-05-14T04:19:45.537Z,15.30
2018-05-14T04:22:16.723Z,15.30
2018-05-14T04:24:47.910Z,15.40
2018-05-14T04:27:19.111Z,15.40
2018-05-14T04:29:57.438Z,15.40
2018-05-14T04:32:28.620Z,15.50
2018-05-14T04:35:01.368Z,15.50
2018-05-14T04:37:32.539Z,15.50
2018-05-14T04:40:03.761Z,15.60
2018-05-14T04:42:34.972Z,15.60
2018-05-14T04:45:06.239Z,15.70
2018-05-14T04:47:37.508Z,15.70
2018-05-14T04:50:08.729Z,15.80
2018-05-14T04:52:39.969Z,15.80
2018-05-14T04:55:11.174Z,15.90
2018-05-14T04:57:43.359Z,16.00
2018-05-14T05:00:14.575Z,16.00
2018-05-14T05:02:46.538Z,16.10
2018-05-14T05:05:18.555Z,16.30
2018-05-14T05:07:49.730Z,16.20
2018-05-14T05:10:20.976Z,16.30
2018-05-14T05:12:52.903Z,16.50
2018-05-14T05:15:24.288Z,16.50
2018-05-14T05:17:56.262Z,16.70
2018-05-14T05:20:27.500Z,16.60
2018-05-14T05:22:59.425Z,16.90
2018-05-14T05:25:30.630Z,16.80
2018-05-14T05:28:01.901Z,17.10
2018-05-14T05:30:33.117Z,17.20
2018-05-14T05:33:04.577Z,17.30
2018-05-14T05:35:35.814Z,17.30
2018-05-14T05:38:07.086Z,17.30
2018-05-14T05:40:38.332Z,17.40
2018-05-14T05:43:09.561Z,17.40
2018-05-14T05:45:40.784Z,17.50
2018-05-14T05:48:11.959Z,17.50
2018-05-14T05:50:43.311Z,17.60
2018-05-14T05:53:14.465Z,17.70
2018-05-14T05:55:45.977Z,17.80
2018-05-14T05:58:17.393Z,17.80
2018-05-14T06:00:49.350Z,17.90
2018-05-14T06:03:21.210Z,17.90
2018-05-14T06:05:53.165Z,18.10
2018-05-14T06:08:24.357Z,18.20
2018-05-14T06:10:55.558Z,18.20
2018-05-14T06:13:28.512Z,18.40
2018-05-14T06:15:59.838Z,18.40
2018-05-14T06:18:31.050Z,18.50
2018-05-14T06:21:02.292Z,18.60
2018-05-14T06:23:34.203Z,18.70
2018-05-14T06:26:05.466Z,18.70
2018-05-14T06:28:37.444Z,18.80
2018-05-14T06:31:08.846Z,18.90
2018-05-14T06:33:40.089Z,19.00
2018-05-14T06:36:11.328Z,19.00
2018-05-14T06:38:42.546Z,19.00
2018-05-14T06:41:14.464Z,19.10
2018-05-14T06:43:45.687Z,19.20
2018-05-14T06:46:16.898Z,19.20
2018-05-14T06:48:48.113Z,19.20
2018-05-14T06:51:20.085Z,19.40
2018-05-14T06:53:52.070Z,19.50
2018-05-14T06:56:23.484Z,19.50
2018-05-14T06:58:54.649Z,19.50
2018-05-14T07:01:26.678Z,19.70
2018-05-14T07:03:57.871Z,19.70
2018-05-14T07:06:29.106Z,19.70
2018-05-14T07:09:00.281Z,19.70
2018-05-14T07:11:31.896Z,19.70
2018-05-14T07:14:03.082Z,19.80
2018-05-14T07:16:34.319Z,19.80
2018-05-14T07:19:05.545Z,19.80
2018-05-14T07:21:38.525Z,19.90
2018-05-14T07:24:10.480Z,20.00
2018-05-14T07:26:41.741Z,20.00
2018-05-14T07:29:13.179Z,20.10
2018-05-14T07:31:44.692Z,20.10
2018-05-14T07:34:16.087Z,20.20
2018-05-14T07:36:47.481Z,20.20
2018-05-14T07:39:19.020Z,20.10
2018-05-14T07:41:50.260Z,20.20
2018-05-14T07:44:22.337Z,20.30
2018-05-14T07:46:53.588Z,20.20
2018-05-14T07:49:24.907Z,20.40
2018-05-14T07:51:56.199Z,20.50
2018-05-14T07:54:28.823Z,20.60
2018-05-14T07:57:00.415Z,20.60
2018-05-14T07:59:32.421Z,20.60
2018-05-14T08:02:04.021Z,20.70
2018-05-14T08:04:35.360Z,20.60
2018-05-14T08:07:06.538Z,20.70
2018-05-14T08:09:39.671Z,20.80
2018-05-14T08:12:10.871Z,20.80
2018-05-14T08:14:42.931Z,21.10
2018-05-14T08:17:15.037Z,21.20
2018-05-14T08:19:46.409Z,21.20
2018-05-14T08:22:17.661Z,21.20
2018-05-14T08:24:48.892Z,21.20
2018-05-14T08:27:20.151Z,21.20
2018-05-14T08:29:51.394Z,21.20
2018-05-14T08:32:22.616Z,21.40
2018-05-14T08:34:54.280Z,21.50
2018-05-14T08:37:25.585Z,21.50
2018-05-14T08:39:57.501Z,21.60
2018-05-14T08:42:28.721Z,21.70
2018-05-14T08:45:00.075Z,21.70
2018-05-14T08:47:31.396Z,21.70
2018-05-14T08:50:02.706Z,21.80
2018-05-14T08:52:35.412Z,21.90
2018-05-14T08:55:07.301Z,21.90
2018-05-14T08:57:39.279Z,22.00
2018-05-14T09:00:11.788Z,22.10
2018-05-14T09:02:51.240Z,22.10
2018-05-14T09:05:22.665Z,22.00
2018-05-14T09:07:54.300Z,22.10
2018-05-14T09:10:25.568Z,22.20
2018-05-14T09:12:57.872Z,22.40
2018-05-14T09:15:29.521Z,22.30
2018-05-14T09:18:00.936Z,22.50
2018-05-14T09:20:32.883Z,22.40
2018-05-14T09:23:04.193Z,22.40
2018-05-14T09:25:36.248Z,22.60
2018-05-14T09:28:08.416Z,22.50
2018-05-14T09:30:39.680Z,22.50
2018-05-14T09:33:10.911Z,22.50
2018-05-14T09:35:42.123Z,22.50
2018-05-14T09:38:13.379Z,22.60
2018-05-14T09:40:45.881Z,22.70
2018-05-14T09:43:19.254Z,22.90
2018-05-14T09:45:50.628Z,22.80
2018-05-14T09:48:22.752Z,22.90
2018-05-14T09:50:54.726Z,22.90
2018-05-14T09:53:26.574Z,22.80
2018-05-14T09:55:57.783Z,22.70
2018-05-14T09:58:29.835Z,22.80
2018-05-14T10:01:01.035Z,22.80
2018-05-14T10:03:32.220Z,22.90
2018-05-14T10:06:03.656Z,22.90
2018-05-14T10:08:34.845Z,22.90
2018-05-14T10:11:06.162Z,22.90
2018-05-14T10:13:37.491Z,22.90
2018-05-14T10:16:08.717Z,23.00
2018-05-14T10:18:40.108Z,23.10
2018-05-14T10:21:11.316Z,23.20
2018-05-14T10:23:42.548Z,23.40
2018-05-14T10:26:13.744Z,23.40
2018-05-14T10:28:46.052Z,23.20
2018-05-14T10:31:17.265Z,23.20
2018-05-14T10:33:49.281Z,23.40
2018-05-14T10:36:20.622Z,23.40
2018-05-14T10:38:51.907Z,23.50
2018-05-14T10:41:23.103Z,23.70
2018-05-14T10:43:54.565Z,23.60
2018-05-14T10:46:26.065Z,23.60
2018-05-14T10:48:58.510Z,23.60
2018-05-14T10:51:29.814Z,23.50
2018-05-14T10:54:01.064Z,23.50
2018-05-14T10:56:32.284Z,23.40
2018-05-14T10:59:04.865Z,23.60
2018-05-14T11:01:36.118Z,23.60
2018-05-14T11:04:07.454Z,23.70
2018-05-14T11:06:38.626Z,23.60
2018-05-14T11:09:09.880Z,23.50
2018-05-14T11:11:41.075Z,23.50
2018-05-14T11:14:13.430Z,23.30
2018-05-14T11:16:44.714Z,23.30
2018-05-14T11:19:16.541Z,23.50
2018-05-14T11:21:48.844Z,23.60
2018-05-14T11:24:21.084Z,23.60
2018-05-14T11:26:53.372Z,23.70
2018-05-14T11:29:24.586Z,23.60
2018-05-14T11:31:56.691Z,23.90
2018-05-14T11:34:28.080Z,23.90
2018-05-14T11:36:59.605Z,24.00
2018-05-14T11:39:30.821Z,23.80
2018-05-14T11:42:02.694Z,23.80
2018-05-14T11:44:33.963Z,23.60
2018-05-14T11:47:05.254Z,23.60
2018-05-14T11:49:36.611Z,23.70
2018-05-14T11:52:08.588Z,23.80
2018-05-14T11:54:40.456Z,23.80
2018-05-14T11:57:12.014Z,23.90
2018-05-14T11:59:43.258Z,23.90
2018-05-14T12:02:14.509Z,24.00
2018-05-14T12:04:45.738Z,23.90
2018-05-14T12:07:17.133Z,23.70
2018-05-14T12:09:49.061Z,24.00
2018-05-14T12:12:20.359Z,24.00
2018-05-14T12:14:52.155Z,23.90
2018-05-14T12:17:23.505Z,24.00
2018-05-14T12:19:54.732Z,23.70
2018-05-14T12:22:26.305Z,23.60
2018-05-14T12:24:57.455Z,23.50
2018-05-14T12:27:28.730Z,23.50
2018-05-14T12:30:00.240Z,23.50
2018-05-14T12:32:31.427Z,23.40
2018-05-14T12:35:03.425Z,23.70
2018-05-14T12:37:35.458Z,23.70
2018-05-14T12:40:07.448Z,23.70
2018-05-14T12:42:38.924Z,23.70
2018-05-14T12:45:10.102Z,23.70
2018-05-14T12:47:41.332Z,23.70
2018-05-14T12:50:12.586Z,23.40
2018-05-14T12:52:43.909Z,23.50
2018-05-14T12:55:15.191Z,23.60
2018-05-14T12:57:47.228Z,23.90
2018-05-14T13:00:18.854Z,23.90
2018-05-14T13:02:50.155Z,24.00
2018-05-14T13:05:22.162Z,24.20
2018-05-14T13:07:53.371Z,24.10
2018-05-14T13:10:24.594Z,24.00
2018-05-14T13:12:55.803Z,24.00
2018-05-14T13:15:27.087Z,24.10
2018-05-14T13:17:58.371Z,24.20
2018-05-14T13:20:29.650Z,24.00
2018-05-14T13:23:00.905Z,24.00
2018-05-14T13:25:32.131Z,23.80
2018-05-14T13:28:03.421Z,23.60
2018-05-14T13:30:34.640Z,23.60
2018-05-14T13:33:05.861Z,23.60
2018-05-14T13:35:37.503Z,23.80
2018-05-14T13:38:08.773Z,24.10
2018-05-14T13:40:40.030Z,24.10
2018-05-14T13:43:12.018Z,23.80
2018-05-14T13:45:44.339Z,23.80
2018-05-14T13:48:15.648Z,23.80
2018-05-14T13:50:46.949Z,23.90
2018-05-14T13:53:19.676Z,23.80
2018-05-14T13:55:51.243Z,23.80
2018-05-14T13:58:22.470Z,24.00
2018-05-14T14:00:53.718Z,23.80
2018-05-14T14:03:24.973Z,23.90
2018-05-14T14:05:56.269Z,23.80
2018-05-14T14:08:27.512Z,23.80
2018-05-14T14:10:58.754Z,23.80
2018-05-14T14:13:30.032Z,23.90
2018-05-14T14:16:01.507Z,24.00
2018-05-14T14:18:32.829Z,23.80
2018-05-14T14:21:04.175Z,23.70
2018-05-14T14:23:35.566Z,23.60
2018-05-14T14:26:06.831Z,23.60
2018-05-14T14:28:38.048Z,23.60
2018-05-14T14:31:09.326Z,23.50
2018-05-14T14:33:40.755Z,23.60
2018-05-14T14:36:12.126Z,23.50
2018-05-14T14:38:44.039Z,23.40
2018-05-14T14:41:15.303Z,23.40
2018-05-14T14:43:47.081Z,23.50
2018-05-14T14:46:18.424Z,23.40
2018-05-14T14:48:49.725Z,23.40
2018-05-14T14:51:21.017Z,23.30
2018-05-14T14:53:52.373Z,23.40
2018-05-14T14:56:24.008Z,23.50
2018-05-14T14:58:55.227Z,23.60
2018-05-14T15:01:26.503Z,23.80
2018-05-14T15:03:57.731Z,23.80
2018-05-14T15:06:29.149Z,23.60
2018-05-14T15:09:00.635Z,23.70
2018-05-14T15:11:31.937Z,23.60
2018-05-14T15:14:03.229Z,23.60
2018-05-14T15:16:34.588Z,23.50
2018-05-14T15:19:05.888Z,23.50
2018-05-14T15:21:37.161Z,23.50
2018-05-14T15:24:08.381Z,23.40
2018-05-14T15:26:40.181Z,23.30
2018-05-14T15:29:12.192Z,23.40
2018-05-14T15:31:44.102Z,23.20
2018-05-14T15:34:15.611Z,23.20
2018-05-14T15:36:46.849Z,23.30
2018-05-14T15:39:18.067Z,23.20
2018-05-14T15:41:50.101Z,23.40
2018-05-14T15:44:21.311Z,23.30
2018-05-14T15:46:52.618Z,23.20
2018-05-14T15:49:23.880Z,23.10
2018-05-14T15:51:55.083Z,23.10
2018-05-14T15:54:26.384Z,23.20
2018-05-14T15:56:57.589Z,23.30
2018-05-14T15:59:29.564Z,23.30
2018-05-14T16:02:01.109Z,23.30
2018-05-14T16:04:32.398Z,23.30
2018-05-14T16:07:03.714Z,23.20
2018-05-14T16:09:34.952Z,23.10
2018-05-14T16:12:06.300Z,23.00
2018-05-14T16:14:38.201Z,23.00
2018-05-14T16:17:09.361Z,22.80
2018-05-14T16:19:40.625Z,23.00
2018-05-14T16:22:11.887Z,22.90
2018-05-14T16:24:44.153Z,22.90
2018-05-14T16:27:15.631Z,22.90
2018-05-14T16:29:47.943Z,22.70
2018-05-14T16:32:19.474Z,22.70
2018-05-14T16:34:50.811Z,22.80
2018-05-14T16:37:22.076Z,22.70
2018-05-14T16:39:53.391Z,22.80
2018-05-14T16:42:24.633Z,22.80
2018-05-14T16:44:55.822Z,22.80
2018-05-14T16:47:27.936Z,22.70
2018-05-14T16:49:59.233Z,22.70
2018-05-14T16:52:45.443Z,22.70
2018-05-14T16:55:17.303Z,22.60
2018-05-14T16:57:49.473Z,22.60
2018-05-14T17:00:21.041Z,22.40
2018-05-14T17:02:52.719Z,22.30
2018-05-14T17:05:23.955Z,22.30
2018-05-14T17:07:55.623Z,22.20
2018-05-14T17:10:27.010Z,22.20
2018-05-14T17:12:58.550Z,22.30
2018-05-14T17:15:29.894Z,22.30
2018-05-14T17:18:01.111Z,22.30
2018-05-14T17:20:32.420Z,22.20
2018-05-14T17:23:04.586Z,22.00
2018-05-14T17:25:36.620Z,22.00
2018-05-14T17:28:08.043Z,22.00
2018-05-14T17:30:39.321Z,22.00
2018-05-14T17:33:10.553Z,21.90
2018-05-14T17:35:42.073Z,21.80
2018-05-14T17:38:13.329Z,21.60
2018-05-14T17:40:44.563Z,21.70
2018-05-14T17:43:15.813Z,21.70
2018-05-14T17:45:47.022Z,21.60
2018-05-14T17:48:20.997Z,21.60
2018-05-14T17:50:52.235Z,21.60
2018-05-14T17:53:23.454Z,21.50
2018-05-14T17:55:55.728Z,21.50
2018-05-14T17:58:26.925Z,21.40
2018-05-14T18:00:58.962Z,21.30
2018-05-14T18:03:30.208Z,21.30
2018-05-14T18:06:01.533Z,21.30
2018-05-14T18:08:32.776Z,21.20
2018-05-14T18:11:04.098Z,21.20
2018-05-14T18:13:35.681Z,21.10
2018-05-14T18:16:07.663Z,21.00
2018-05-14T18:18:38.919Z,21.00
2018-05-14T18:21:11.247Z,20.90
2018-05-14T18:23:46.294Z,20.90
2018-05-14T18:26:17.593Z,20.90
2018-05-14T18:28:48.868Z,20.70
2018-05-14T18:31:26.146Z,20.70
2018-05-14T18:34:04.210Z,20.70
2018-05-14T18:36:36.273Z,20.60
2018-05-14T18:39:08.626Z,20.60
2018-05-14T18:41:39.797Z,20.60
2018-05-14T18:44:13.831Z,20.50
2018-05-14T18:46:45.739Z,20.40
2018-05-14T18:49:17.793Z,20.30
2018-05-14T18:51:49.043Z,20.30
2018-05-14T18:54:20.531Z,20.30
2018-05-14T18:56:51.993Z,20.30
2018-05-14T18:59:23.292Z,20.20
2018-05-14T19:01:54.536Z,20.10
2018-05-14T20:26:27.988Z,18.90
2018-05-14T20:28:59.233Z,18.50
2018-05-14T20:31:30.404Z,18.50
2018-05-14T20:34:01.587Z,18.50
2018-05-14T20:36:33.638Z,18.30
2018-05-14T20:39:04.835Z,18.30
2018-05-14T20:41:36.087Z,18.40
2018-05-14T20:44:07.452Z,18.30
2018-05-14T20:46:39.078Z,18.30
2018-05-14T20:49:10.247Z,18.30
2018-05-14T20:51:41.547Z,18.20
2018-05-14T20:54:12.743Z,18.20
2018-05-14T20:56:44.786Z,18.10
2018-05-14T20:59:16.028Z,18.10
2018-05-14T21:01:47.898Z,18.10
2018-05-14T21:04:19.173Z,18.20
2018-05-14T21:06:51.223Z,18.00
2018-05-14T21:09:23.239Z,18.00
2018-05-14T21:11:54.489Z,18.00
2018-05-14T21:14:26.213Z,18.00
2018-05-14T21:16:58.198Z,18.00
2018-05-14T21:19:29.445Z,17.90
2018-05-14T21:22:00.727Z,17.90
2018-05-14T21:24:31.945Z,17.90
2018-05-14T21:27:03.577Z,17.80
2018-05-14T21:29:34.774Z,17.80
2018-05-14T21:32:05.997Z,17.80
2018-05-14T21:34:37.277Z,17.70
2018-05-14T21:37:08.640Z,17.70
2018-05-14T21:39:39.979Z,17.70
2018-05-14T21:42:11.442Z,17.70
2018-05-14T21:44:42.714Z,17.70
2018-05-14T21:47:13.899Z,17.60
2018-05-14T21:49:45.173Z,17.50
2018-05-14T21:52:17.089Z,17.40
2018-05-14T21:54:48.313Z,17.40
2018-05-14T21:57:19.645Z,17.30
2018-05-14T21:59:50.879Z,17.20
2018-05-14T22:02:22.079Z,17.20
2018-05-14T22:04:53.391Z,17.20
2018-05-14T22:07:24.644Z,17.30
2018-05-14T22:09:55.824Z,17.20
2018-05-14T22:12:27.064Z,17.10
2018-05-14T22:14:58.381Z,17.20
2018-05-14T22:17:29.625Z,17.10
2018-05-14T22:20:01.078Z,17.10
2018-05-14T22:22:33.273Z,17.20
2018-05-14T22:25:05.965Z,17.10
2018-05-14T22:27:38.293Z,17.00
2018-05-14T22:30:09.520Z,17.00
2018-05-14T22:32:40.767Z,16.90
2018-05-14T22:35:12.201Z,16.80
2018-05-14T22:37:43.459Z,16.80
2018-05-14T22:40:14.723Z,16.60
2018-05-14T22:42:45.960Z,16.60
2018-05-14T22:45:17.255Z,16.50
2018-05-14T22:47:49.217Z,16.50
2018-05-14T22:50:21.145Z,16.40
2018-05-14T22:52:52.371Z,16.40
2018-05-14T22:55:23.596Z,16.30
2018-05-14T22:57:54.869Z,16.40
2018-05-14T23:00:26.069Z,16.30
2018-05-14T23:02:57.272Z,16.30
2018-05-14T23:05:28.458Z,16.40
2018-05-14T23:07:59.697Z,16.30
2018-05-14T23:10:31.271Z,16.30
2018-05-14T23:13:02.462Z,16.30
2018-05-14T23:15:33.845Z,16.20
2018-05-14T23:18:05.083Z,16.20
2018-05-14T23:20:37.266Z,16.10
2018-05-14T23:23:08.435Z,16.10
2018-05-14T23:25:39.655Z,16.00
2018-05-14T23:28:10.836Z,16.00
2018-05-14T23:30:42.023Z,16.00
2018-05-14T23:33:13.233Z,15.90
2018-05-14T23:35:44.731Z,16.00
2018-05-14T23:38:15.970Z,16.00
2018-05-14T23:40:47.270Z,15.90
2018-05-14T23:43:18.486Z,15.90
2018-05-14T23:45:50.522Z,15.90
2018-05-14T23:48:22.853Z,15.70
2018-05-14T23:50:54.092Z,15.70
2018-05-14T23:53:25.289Z,15.50
2018-05-14T23:55:56.543Z,15.50
2018-05-14T23:58:27.781Z,15.30
